Erastus, North Carolina
Current Conditions -  °F | °C
As of 5:54 PM on Tuesday 25 Nov 2014 (Local Time) from KAVL Reporting Station
Clear Clear  
Wind Chill: 51°   Ceiling: Unl
Heat Index: 51°   Visibility: 10mi
Dew Point: 22°   Wind: 0mph
Humidity: 32%   Direction: NA
Pressure: 30.06"   Gusts: NA
Location:  35.2608°N, 83.1173°W
Report Text: KAVL 252254Z AUTO 00000KT 10SM CLR 11/M06 A3006 RMK AO2 SLP173 T01061056
Loading
Personal Weather Stations






























Interactive Weather Map New forecast layout! Learn more

10-Day Weather Forecast

Advertisements
Track Severe Weather on mobile